7VA7 weather

Virginia DMV Headquarters Heliport
Richmond, Virginia, United States

Public forecast

Using degrees Fahrenheit for public forecast. Weather courtesy of forecast.io.

METAR (pilot weather report)

Closest report is Richmond International Airport, 7.6 nm (14.0 km) ESE. Retrieved 2019/06/25 13:54 UTC (1 hour ago):

KRIC 251354Z 36009KT 10SM SCT032 SCT050 BKN200 BKN300 29/20 A2989 RMK AO2 SLP124 T02890200 $

TAF (pilot weather forecast)

Closest forecast is Richmond International Airport, 7.6 nm (14.0 km) ESE. Retrieved 2019/06/25 12:22 UTC (3 hours ago):

TAF KRIC 251120Z 2512/2612 27009KT P6SM SCT250 FM251400 32007KT P6SM SCT040 BKN250 FM260000 26004KT P6SM SKC